Time;durP1;ratioP1;P1;durP2;ratioP2;P2;SDS_P1;SDS_P2;PMS_P1;PMS_P2;Temp;Humidity;BMP_temperature;BMP_pressure;BME280_temperature;BME280_humidity;BME280_pressure;Samples;Min_cycle;Max_cycle;Signal;HPM_P1;HPM_P2
2022/06/09 00:00:58;;;;;;;3.25;3.10;;;;;;;18.90;nan;94456.88;5074895;28;20197;-70
2022/06/09 00:03:28;;;;;;;3.70;3.40;;;;;;;18.99;nan;94453.59;5074590;28;20202;-70
2022/06/09 00:05:55;;;;;;;3.78;3.58;;;;;;;19.09;nan;94453.72;5075371;28;20208;-69
2022/06/09 00:08:24;;;;;;;4.25;3.80;;;;;;;18.92;nan;94446.47;5075164;28;20267;-69
2022/06/09 00:10:54;;;;;;;3.83;3.55;;;;;;;18.56;nan;94444.88;5074836;28;20201;-69
2022/06/09 00:13:22;;;;;;;4.05;3.75;;;;;;;18.48;nan;94460.88;5075726;28;20225;-71
2022/06/09 00:15:50;;;;;;;3.50;3.30;;;;;;;18.75;nan;94455.47;5074859;28;20202;-69
2022/06/09 00:18:17;;;;;;;4.00;3.70;;;;;;;18.76;nan;94453.72;5075411;28;20225;-71
2022/06/09 00:20:44;;;;;;;3.90;3.70;;;;;;;18.83;nan;94447.97;5074405;28;20374;-69
2022/06/09 00:23:13;;;;;;;4.68;4.07;;;;;;;18.89;nan;94447.50;5075179;28;20201;-69
2022/06/09 00:25:40;;;;;;;4.72;4.35;;;;;;;18.66;nan;94445.84;5073462;28;20244;-70
2022/06/09 00:28:07;;;;;;;6.72;4.35;;;;;;;18.40;nan;94447.75;5074178;28;20208;-72
2022/06/09 00:30:35;;;;;;;7.90;4.28;;;;;;;18.49;nan;94448.84;5074650;28;20204;-69
2022/06/09 00:33:03;;;;;;;4.90;4.40;;;;;;;18.51;nan;94439.25;5075528;28;20241;-69
2022/06/09 00:35:30;;;;;;;8.77;4.28;;;;;;;18.54;nan;94446.75;5073748;28;20217;-73
2022/06/09 00:37:57;;;;;;;5.15;4.75;;;;;;;18.63;nan;94430.63;5074913;28;20596;-69
2022/06/09 00:40:24;;;;;;;5.20;4.85;;;;;;;18.51;nan;94427.22;5077741;28;20635;-69
2022/06/09 00:42:52;;;;;;;4.55;4.25;;;;;;;18.62;nan;94434.13;5078339;28;20204;-69
2022/06/09 00:45:26;;;;;;;4.40;4.05;;;;;;;18.70;nan;94436.97;5076694;28;20201;-71
2022/06/09 00:47:59;;;;;;;5.43;3.95;;;;;;;18.80;nan;94437.91;5076800;28;20911;-70
2022/06/09 00:50:29;;;;;;;5.05;4.65;;;;;;;18.87;nan;94430.53;5076581;28;20201;-69
2022/06/09 00:53:02;;;;;;;7.80;7.20;;;;;;;18.89;nan;94426.91;5076479;28;20236;-70
2022/06/09 00:55:33;;;;;;;5.32;4.85;;;;;;;18.90;nan;94431.13;5076179;28;20238;-71
2022/06/09 00:58:04;;;;;;;6.45;5.22;;;;;;;18.74;nan;94417.78;5077728;28;20266;-68
2022/06/09 01:00:46;;;;;;;6.75;6.15;;;;;;;18.83;nan;94426.53;5075988;28;20202;-69
2022/06/09 01:03:16;;;;;;;8.52;6.78;;;;;;;18.93;nan;94430.91;5077810;28;20766;-69
2022/06/09 01:05:48;;;;;;;7.53;6.93;;;;;;;18.83;nan;94432.50;5076444;28;20197;-68
2022/06/09 01:08:16;;;;;;;7.20;6.60;;;;;;;18.65;nan;94433.91;5077175;28;21803;-69
2022/06/09 01:10:43;;;;;;;7.03;6.35;;;;;;;18.58;nan;94435.25;5077501;28;20202;-70
2022/06/09 01:13:10;;;;;;;6.93;6.25;;;;;;;18.45;nan;94426.84;5076052;28;20229;-68
2022/06/09 01:15:47;;;;;;;7.20;6.47;;;;;;;18.54;nan;94426.16;5078520;28;20297;-69
2022/06/09 01:18:27;;;;;;;8.45;6.00;;;;;;;18.49;nan;94426.50;5076715;28;20205;-69
2022/06/09 01:21:03;;;;;;;9.30;6.72;;;;;;;18.63;nan;94431.44;5076863;28;20261;-71
2022/06/09 01:24:08;;;;;;;8.45;7.28;;;;;;;18.65;nan;94415.91;5077859;28;20201;-69
2022/06/09 01:26:45;;;;;;;7.97;7.47;;;;;;;18.73;nan;94426.44;5046639;28;20235;-71
2022/06/09 01:29:26;;;;;;;11.85;10.70;;;;;;;18.67;nan;94422.56;5076345;28;20230;-70
2022/06/09 01:31:59;;;;;;;13.63;12.20;;;;;;;18.79;nan;94418.25;5077665;28;20202;-70
2022/06/09 01:34:35;;;;;;;13.45;11.90;;;;;;;18.79;nan;94414.88;5075583;28;20230;-69
2022/06/09 01:37:08;;;;;;;14.18;11.73;;;;;;;18.72;nan;94414.50;5077959;28;20206;-69
2022/06/09 01:39:46;;;;;;;15.52;11.73;;;;;;;18.72;nan;94417.09;5075580;28;20262;-69
2022/06/09 01:42:26;;;;;;;24.48;12.48;;;;;;;18.74;nan;94412.63;5076246;28;20215;-69
2022/06/09 01:44:57;;;;;;;11.77;10.63;;;;;;;18.80;nan;94408.78;5076824;28;20197;-68
2022/06/09 01:47:33;;;;;;;15.23;11.07;;;;;;;18.81;nan;94406.06;5076197;28;20292;-69
2022/06/09 01:50:06;;;;;;;12.88;10.85;;;;;;;18.88;nan;94416.72;5075964;28;20198;-69
2022/06/09 01:52:34;;;;;;;11.43;10.27;;;;;;;18.73;nan;94411.00;5077837;28;20206;-68
2022/06/09 01:55:06;;;;;;;13.13;10.93;;;;;;;18.80;nan;94412.19;5077229;28;20682;-69
2022/06/09 01:57:37;;;;;;;15.43;11.02;;;;;;;18.69;nan;94414.72;5077408;28;20212;-69
2022/06/09 02:00:09;;;;;;;14.73;12.30;;;;;;;18.60;nan;94415.41;5076093;28;20198;-68
2022/06/09 02:02:41;;;;;;;16.20;12.52;;;;;;;18.55;nan;94414.94;5076936;28;20983;-71
2022/06/09 02:05:13;;;;;;;16.83;14.63;;;;;;;18.70;nan;94416.38;5077969;28;21085;-70
2022/06/09 02:07:43;;;;;;;18.13;12.85;;;;;;;18.72;nan;94413.69;5077679;28;20684;-70
2022/06/09 02:10:17;;;;;;;14.18;12.60;;;;;;;18.68;nan;94415.66;5076633;28;20212;-72
2022/06/09 02:12:45;;;;;;;20.67;14.40;;;;;;;18.80;nan;94417.31;5076259;28;20692;-70
2022/06/09 02:15:16;;;;;;;17.08;14.23;;;;;;;18.74;nan;94414.41;5076748;28;20206;-71
2022/06/09 02:17:46;;;;;;;24.13;15.75;;;;;;;18.73;nan;94410.19;5076481;28;20201;-71
2022/06/09 02:20:15;;;;;;;18.08;15.40;;;;;;;18.46;nan;94407.88;5075800;28;20668;-70
2022/06/09 02:22:42;;;;;;;18.88;15.90;;;;;;;18.52;nan;94410.00;5077075;28;20254;-68
2022/06/09 02:25:10;;;;;;;18.30;15.48;;;;;;;18.45;nan;94408.81;5076118;28;20201;-68
2022/06/09 02:27:38;;;;;;;20.80;15.82;;;;;;;18.49;nan;94421.34;5076915;28;20685;-69
2022/06/09 02:30:06;;;;;;;18.63;15.18;;;;;;;18.29;nan;94427.97;5076869;28;20206;-69
2022/06/09 02:32:34;;;;;;;18.00;13.70;;;;;;;18.39;nan;94422.97;5076484;28;20202;-69
2022/06/09 02:35:03;;;;;;;15.85;14.23;;;;;;;17.93;nan;94428.06;5076449;28;20291;-69
2022/06/09 02:37:29;;;;;;;13.35;12.10;;;;;;;18.00;nan;94422.38;5076658;28;20255;-68
2022/06/09 02:39:56;;;;;;;19.75;14.75;;;;;;;17.88;nan;94425.84;5076816;28;20275;-69
2022/06/09 02:42:23;;;;;;;15.52;13.27;;;;;;;17.96;nan;94425.28;5076682;28;20201;-69
2022/06/09 02:44:51;;;;;;;15.80;14.13;;;;;;;17.83;nan;94432.22;5075250;28;20198;-69
2022/06/09 02:47:18;;;;;;;20.55;14.23;;;;;;;17.80;nan;94435.03;5075706;28;20251;-70
2022/06/09 02:49:45;;;;;;;27.20;15.98;;;;;;;17.83;nan;94433.03;5074755;28;20209;-69
2022/06/09 02:52:13;;;;;;;19.27;16.08;;;;;;;17.81;nan;94434.13;5074584;28;20679;-69
2022/06/09 02:54:40;;;;;;;24.30;15.75;;;;;;;17.89;nan;94434.38;5074852;28;20218;-69
2022/06/09 02:57:07;;;;;;;21.17;16.30;;;;;;;17.89;nan;94434.38;5075411;28;20734;-69
2022/06/09 02:59:33;;;;;;;56.95;15.60;;;;;;;17.86;nan;94430.25;5076281;28;20293;-69
2022/06/09 03:02:01;;;;;;;16.48;14.80;;;;;;;17.94;nan;94427.16;5074639;28;20235;-69
2022/06/09 03:04:28;;;;;;;43.63;15.23;;;;;;;17.88;nan;94428.41;5074438;28;20688;-71
2022/06/09 03:06:55;;;;;;;19.90;14.98;;;;;;;18.00;nan;94430.09;5075508;28;20206;-70
2022/06/09 03:09:23;;;;;;;14.40;13.02;;;;;;;17.99;nan;94427.63;5074899;28;20197;-69
2022/06/09 03:11:50;;;;;;;18.63;14.85;;;;;;;17.87;nan;94425.94;5075383;28;20205;-69
2022/06/09 03:14:17;;;;;;;32.80;14.30;;;;;;;17.86;nan;94432.84;5073611;28;20315;-69
2022/06/09 03:16:43;;;;;;;16.65;14.27;;;;;;;17.99;nan;94430.22;5074020;28;20733;-68
2022/06/09 03:19:10;;;;;;;15.63;14.00;;;;;;;17.89;nan;94426.66;5073318;28;20190;-69
2022/06/09 03:21:37;;;;;;;16.45;14.73;;;;;;;17.73;nan;94423.56;5073996;28;20186;-69
2022/06/09 03:24:05;;;;;;;17.30;14.02;;;;;;;18.01;nan;94433.50;5073676;28;21308;-69
2022/06/09 03:26:33;;;;;;;19.58;14.60;;;;;;;17.89;nan;94429.22;5073191;28;20658;-69
2022/06/09 03:29:00;;;;;;;18.27;14.30;;;;;;;17.86;nan;94434.59;5074118;28;20205;-69
2022/06/09 03:31:26;;;;;;;16.63;13.75;;;;;;;18.05;nan;94434.91;5073531;28;20230;-68
2022/06/09 03:33:54;;;;;;;19.02;14.98;;;;;;;18.28;nan;94434.06;5074718;28;20226;-68
2022/06/09 03:36:21;;;;;;;16.25;13.98;;;;;;;18.52;nan;94436.56;5075942;28;20722;-69
2022/06/09 03:38:48;;;;;;;15.55;13.95;;;;;;;18.58;nan;94438.66;5076367;28;20198;-69
2022/06/09 03:41:15;;;;;;;17.80;14.30;;;;;;;18.54;nan;94431.31;5076305;28;20220;-69
2022/06/09 03:43:43;;;;;;;18.02;14.35;;;;;;;18.59;nan;94431.75;5075939;28;20202;-69
2022/06/09 03:46:12;;;;;;;16.75;13.30;;;;;;;18.58;nan;94430.13;5075900;28;20635;-69
2022/06/09 03:48:38;;;;;;;15.10;13.45;;;;;;;18.54;nan;94431.31;5076505;28;20202;-70
2022/06/09 03:51:05;;;;;;;20.38;15.68;;;;;;;18.39;nan;94438.38;5076536;28;20202;-70
2022/06/09 03:53:32;;;;;;;18.55;15.95;;;;;;;18.52;nan;94433.16;5075752;28;20755;-69
2022/06/09 03:55:59;;;;;;;17.20;15.13;;;;;;;18.60;nan;94430.84;5075801;28;20216;-71
2022/06/09 03:58:26;;;;;;;22.38;18.38;;;;;;;18.73;nan;94434.16;5076046;28;20213;-69
2022/06/09 04:00:55;;;;;;;23.10;17.92;;;;;;;18.84;nan;94434.16;5074952;28;21199;-70
2022/06/09 04:03:22;;;;;;;22.13;17.67;;;;;;;18.85;nan;94433.22;5076250;28;20284;-69
2022/06/09 04:05:48;;;;;;;22.45;17.48;;;;;;;18.97;nan;94434.88;5075811;28;20202;-70
2022/06/09 04:08:15;;;;;;;24.25;15.88;;;;;;;18.78;nan;94429.50;5076201;28;20552;-70
2022/06/09 04:10:42;;;;;;;22.90;15.95;;;;;;;18.76;nan;94433.13;5075478;28;20202;-71
2022/06/09 04:13:09;;;;;;;30.58;21.67;;;;;;;18.85;nan;94424.69;5074925;28;20296;-70
2022/06/09 04:15:37;;;;;;;33.22;22.55;;;;;;;19.01;nan;94420.84;5075450;28;20232;-71
2022/06/09 04:18:06;;;;;;;25.15;18.85;;;;;;;19.05;nan;94420.59;5076114;28;20213;-70
2022/06/09 04:20:33;;;;;;;22.63;15.88;;;;;;;19.07;nan;94441.88;5075727;28;20256;-70
2022/06/09 04:23:00;;;;;;;19.85;16.42;;;;;;;18.96;nan;94425.50;5075450;28;20228;-71
2022/06/09 04:25:27;;;;;;;21.67;16.88;;;;;;;18.99;nan;94433.00;5075063;28;20276;-70
2022/06/09 04:27:55;;;;;;;22.98;15.77;;;;;;;18.86;nan;94424.56;5075256;28;20210;-73
2022/06/09 04:30:23;;;;;;;23.52;15.55;;;;;;;18.92;nan;94426.69;5075120;28;20202;-70
2022/06/09 04:32:50;;;;;;;25.65;17.90;;;;;;;18.95;nan;94423.88;5075540;28;20636;-71
2022/06/09 04:35:19;;;;;;;21.17;15.90;;;;;;;19.15;nan;94424.09;5074961;28;20623;-70
2022/06/09 04:38:01;;;;;;;21.27;16.60;;;;;;;19.25;nan;94425.03;5074695;28;20266;-72
2022/06/09 04:40:30;;;;;;;26.42;20.13;;;;;;;19.05;nan;94423.19;5075181;28;20221;-73
2022/06/09 04:42:57;;;;;;;38.78;25.75;;;;;;;18.90;nan;94423.41;5075791;28;20206;-70
2022/06/09 04:45:24;;;;;;;30.30;19.38;;;;;;;19.14;nan;94418.13;5074948;28;20194;-70
2022/06/09 04:47:51;;;;;;;25.60;18.30;;;;;;;19.45;nan;94424.28;5075270;28;20201;-70
2022/06/09 04:50:19;;;;;;;25.17;16.83;;;;;;;19.67;nan;94416.53;5074964;28;20233;-71
2022/06/09 04:52:46;;;;;;;25.90;19.85;;;;;;;19.88;nan;94418.34;5075028;28;20212;-70
2022/06/09 04:55:13;;;;;;;28.38;18.83;;;;;;;20.27;nan;94422.06;5074473;28;20350;-70
2022/06/09 04:57:40;;;;;;;26.38;18.83;;;;;;;20.73;nan;94424.25;5075331;28;20205;-70
2022/06/09 05:00:09;;;;;;;21.63;16.83;;;;;;;21.09;nan;94417.75;5075219;28;20568;-71
2022/06/09 05:02:36;;;;;;;24.60;15.52;;;;;;;21.67;nan;94415.34;5075275;28;20205;-71
2022/06/09 05:05:03;;;;;;;20.83;16.38;;;;;;;21.86;nan;94417.16;5075032;28;20287;-71
2022/06/09 05:07:31;;;;;;;21.38;16.40;;;;;;;21.67;nan;94420.53;5075071;28;20208;-70
2022/06/09 05:09:58;;;;;;;25.17;16.77;;;;;;;22.03;nan;94417.31;5074673;28;20197;-71
2022/06/09 05:12:24;;;;;;;19.67;14.90;;;;;;;22.60;nan;94417.41;5074501;28;20201;-70
2022/06/09 05:14:53;;;;;;;23.27;17.85;;;;;;;23.04;nan;94421.94;5073127;28;21001;-70
2022/06/09 05:17:20;;;;;;;19.23;15.75;;;;;;;23.60;nan;94426.22;5073331;28;20274;-73
2022/06/09 05:19:47;;;;;;;21.52;16.60;;;;;;;23.90;nan;94413.88;5072811;28;20235;-71
2022/06/09 05:22:14;;;;;;;17.83;15.93;;;;;;;25.57;nan;94409.28;5073066;28;20870;-73
2022/06/09 05:24:43;;;;;;;19.75;15.43;;;;;;;28.12;nan;94412.03;5073442;28;20711;-70
2022/06/09 05:27:11;;;;;;;27.10;15.80;;;;;;;29.42;nan;94401.25;5077181;28;20230;-71
2022/06/09 05:29:38;;;;;;;17.35;13.15;;;;;;;29.74;nan;94405.25;5077955;28;20197;-73
2022/06/09 05:32:05;;;;;;;14.75;13.10;;;;;;;29.71;nan;94407.41;5079074;28;20194;-71
2022/06/09 05:34:32;;;;;;;15.93;11.82;;;;;;;28.24;nan;94400.22;5077861;28;20282;-71
2022/06/09 05:36:58;;;;;;;17.95;12.30;;;;;;;26.42;nan;94401.19;5078756;28;20213;-73
2022/06/09 05:45:11;;;;;;;13.40;12.00;;;;;;;25.01;nan;94414.09;5077303;28;20208;-71
2022/06/09 05:47:38;;;;;;;18.88;12.57;;;;;;;25.28;nan;94405.28;5078246;28;20289;-71
2022/06/09 05:50:07;;;;;;;15.88;12.25;;;;;;;25.56;nan;94408.47;5077928;28;20338;-70
2022/06/09 05:52:35;;;;;;;15.80;12.25;;;;;;;25.11;nan;94413.19;5078534;28;20205;-70
2022/06/09 05:55:02;;;;;;;15.93;12.70;;;;;;;24.06;nan;94411.41;5077813;28;20230;-71
2022/06/09 05:57:31;;;;;;;18.73;16.50;;;;;;;23.34;nan;94410.47;5077904;28;20631;-73
2022/06/09 05:59:58;;;;;;;19.30;15.63;;;;;;;23.07;nan;94407.88;5078189;28;20205;-73
2022/06/09 06:02:26;;;;;;;21.13;17.95;;;;;;;22.96;nan;94403.72;5078388;28;20252;-72
2022/06/09 06:04:54;;;;;;;16.67;14.55;;;;;;;23.15;nan;94399.41;5078219;28;20197;-71
2022/06/09 06:07:21;;;;;;;20.42;15.77;;;;;;;24.59;nan;94407.97;5078340;28;20205;-70
2022/06/09 06:09:48;;;;;;;15.55;13.02;;;;;;;26.08;nan;94408.28;5077158;28;20205;-73
2022/06/09 06:12:16;;;;;;;15.32;11.38;;;;;;;27.38;nan;94405.56;5078135;28;20205;-73
2022/06/09 06:14:44;;;;;;;13.80;11.63;;;;;;;28.56;nan;94398.31;5077527;28;20233;-71
2022/06/09 06:17:13;;;;;;;13.25;12.00;;;;;;;29.30;nan;94391.38;5078341;28;20220;-73
2022/06/09 06:19:40;;;;;;;22.90;12.77;;;;;;;29.47;nan;94392.81;5077332;28;20208;-70
2022/06/09 06:22:07;;;;;;;30.27;16.60;;;;;;;30.25;nan;94386.84;5077217;28;20205;-71
2022/06/09 06:24:35;;;;;;;17.30;13.15;;;;;;;30.55;nan;94399.81;5077862;28;20198;-71
2022/06/09 06:27:02;;;;;;;41.17;21.45;;;;;;;29.54;nan;94393.72;5077160;28;20324;-71
2022/06/09 06:29:30;;;;;;;21.05;12.73;;;;;;;27.93;nan;94397.63;5077243;28;20230;-71
2022/06/09 06:31:58;;;;;;;14.77;12.98;;;;;;;26.88;nan;94401.44;5077925;28;20255;-70
2022/06/09 06:34:25;;;;;;;12.95;11.65;;;;;;;25.16;nan;94392.72;5076902;28;20615;-73
2022/06/09 06:36:52;;;;;;;16.60;11.63;;;;;;;24.98;nan;94391.03;5077316;28;20197;-73
2022/06/09 06:39:18;;;;;;;13.18;11.95;;;;;;;24.70;nan;94384.34;5076729;28;20734;-72
2022/06/09 06:41:45;;;;;;;18.33;12.38;;;;;;;24.21;nan;94383.97;5077342;28;20291;-70
2022/06/09 06:44:12;;;;;;;16.35;12.57;;;;;;;23.70;nan;94395.03;5076771;28;21147;-71
2022/06/09 06:46:39;;;;;;;14.02;12.57;;;;;;;23.97;nan;94382.00;5077242;28;20255;-71
2022/06/09 06:49:08;;;;;;;17.40;10.90;;;;;;;24.62;nan;94371.28;5076741;28;20197;-73
2022/06/09 06:51:36;;;;;;;12.85;11.60;;;;;;;25.40;nan;94380.63;5076852;28;20668;-71
2022/06/09 06:54:05;;;;;;;17.35;11.75;;;;;;;25.68;nan;94383.03;5071309;28;20294;-71
2022/06/09 06:56:32;;;;;;;11.80;9.95;;;;;;;26.50;nan;94378.69;5076838;28;20978;-72
2022/06/09 06:58:59;;;;;;;14.40;11.27;;;;;;;27.38;nan;94385.50;5075506;28;20198;-71
2022/06/09 07:01:26;;;;;;;12.88;10.40;;;;;;;27.89;nan;94385.09;5075772;28;20190;-71
2022/06/09 07:03:53;;;;;;;11.60;10.55;;;;;;;27.87;nan;94387.88;5069455;28;20193;-71
2022/06/09 07:06:21;;;;;;;11.02;9.90;;;;;;;27.82;nan;94384.97;5076670;28;20209;-71
2022/06/09 07:08:48;;;;;;;15.88;11.25;;;;;;;27.92;nan;94390.78;5076683;28;20197;-73
2022/06/09 07:11:15;;;;;;;15.10;10.18;;;;;;;28.02;nan;94380.09;5076511;28;20197;-72
2022/06/09 07:13:42;;;;;;;10.85;9.85;;;;;;;28.17;nan;94381.00;5076017;28;20654;-71
2022/06/09 07:16:10;;;;;;;13.45;9.68;;;;;;;28.08;nan;94379.41;5076953;28;20224;-71
2022/06/09 07:18:38;;;;;;;16.92;11.02;;;;;;;27.61;nan;94379.53;5070590;28;20247;-70
2022/06/09 07:21:05;;;;;;;14.40;10.18;;;;;;;27.29;nan;94381.28;5075769;28;20276;-69
2022/06/09 07:23:36;;;;;;;14.60;10.57;;;;;;;26.66;nan;94381.28;5075970;28;20237;-71
2022/06/09 07:26:03;;;;;;;11.77;10.70;;;;;;;26.93;nan;94367.06;5076665;28;20238;-70
2022/06/09 07:28:30;;;;;;;13.15;10.63;;;;;;;26.85;nan;94375.72;5074930;28;20221;-72
2022/06/09 07:30:58;;;;;;;11.00;9.88;;;;;;;26.82;nan;94362.19;5075746;28;20201;-70
2022/06/09 07:33:27;;;;;;;12.25;10.98;;;;;;;26.61;nan;94368.75;5076487;28;20258;-71
2022/06/09 07:35:56;;;;;;;11.38;10.25;;;;;;;26.55;nan;94366.81;5076489;28;21084;-71
2022/06/09 07:38:24;;;;;;;13.18;10.25;;;;;;;26.40;nan;94366.66;5075053;28;20201;-70
2022/06/09 07:40:53;;;;;;;12.85;8.25;;;;;;;26.33;nan;94362.25;5076532;28;20270;-70
2022/06/09 07:43:20;;;;;;;15.05;10.88;;;;;;;26.05;nan;94356.53;5076127;28;20206;-71
2022/06/09 07:45:48;;;;;;;13.88;10.48;;;;;;;26.57;nan;94354.41;5075846;28;20197;-70
2022/06/09 07:48:15;;;;;;;19.55;10.70;;;;;;;26.89;nan;94350.13;5074770;28;20575;-69
2022/06/09 07:50:42;;;;;;;13.07;10.15;;;;;;;27.10;nan;94351.22;5074199;28;20201;-70
2022/06/09 07:53:11;;;;;;;13.70;10.77;;;;;;;27.18;nan;94355.59;5075926;28;20202;-70
2022/06/09 07:55:37;;;;;;;13.50;12.07;;;;;;;27.37;nan;94349.97;5076261;28;20225;-71
2022/06/09 07:58:06;;;;;;;13.98;10.55;;;;;;;27.13;nan;94342.25;5075639;28;20209;-70
2022/06/09 08:00:34;;;;;;;10.85;9.82;;;;;;;27.27;nan;94345.91;5075896;28;20286;-71
2022/06/09 08:03:03;;;;;;;14.27;10.32;;;;;;;27.03;nan;94342.44;5075878;28;20198;-70
2022/06/09 08:05:33;;;;;;;14.30;11.48;;;;;;;27.01;nan;94338.34;5075974;28;20791;-71
2022/06/09 08:08:00;;;;;;;13.10;10.18;;;;;;;26.87;nan;94328.63;5075485;28;20206;-69
2022/06/09 08:10:29;;;;;;;12.60;9.73;;;;;;;27.14;nan;94338.66;5075510;28;20198;-71
2022/06/09 08:12:58;;;;;;;23.45;14.45;;;;;;;27.36;nan;94331.84;5074483;28;20286;-70
2022/06/09 08:15:27;;;;;;;13.48;10.77;;;;;;;27.65;nan;94326.84;5075571;28;20225;-70
2022/06/09 08:17:55;;;;;;;20.23;13.68;;;;;;;27.91;nan;94325.69;5075418;28;20209;-70
2022/06/09 08:20:23;;;;;;;15.25;11.10;;;;;;;27.80;nan;94329.50;5075971;28;20422;-70
2022/06/09 08:22:49;;;;;;;13.13;9.70;;;;;;;27.19;nan;94331.13;5075723;28;20202;-70
2022/06/09 08:25:19;;;;;;;21.17;12.13;;;;;;;27.27;nan;94325.84;5075000;28;20205;-70
2022/06/09 08:27:46;;;;;;;12.18;10.27;;;;;;;27.21;nan;94323.13;5075077;28;20208;-70
2022/06/09 08:30:15;;;;;;;9.90;8.93;;;;;;;27.39;nan;94319.28;5075474;28;20220;-70
2022/06/09 08:32:44;;;;;;;12.88;9.88;;;;;;;27.40;nan;94317.50;5075424;28;20201;-70
2022/06/09 08:35:15;;;;;;;12.68;10.30;;;;;;;26.96;nan;94312.81;5075174;28;20233;-70
2022/06/09 08:37:43;;;;;;;16.67;9.32;;;;;;;27.00;nan;94308.84;5073852;28;20205;-70
2022/06/09 08:40:17;;;;;;;12.75;10.48;;;;;;;26.60;nan;94311.59;5075226;28;20217;-70
2022/06/09 08:43:05;;;;;;;14.68;10.63;;;;;;;26.54;nan;94304.41;5074894;28;21172;-71
2022/06/09 08:45:36;;;;;;;10.68;9.55;;;;;;;26.75;nan;94305.50;5075467;28;20201;-70
2022/06/09 08:48:07;;;;;;;13.73;9.77;;;;;;;26.63;nan;94308.66;5075282;28;20201;-70
2022/06/09 08:50:40;;;;;;;17.48;10.18;;;;;;;26.56;nan;94303.28;5075468;28;20213;-71
2022/06/09 08:53:13;;;;;;;10.35;9.45;;;;;;;26.80;nan;94305.00;5075109;28;20236;-72
2022/06/09 08:55:43;;;;;;;11.10;9.40;;;;;;;26.85;nan;94309.72;5074326;28;20229;-73
2022/06/09 08:58:19;;;;;;;15.02;10.23;;;;;;;26.61;nan;94305.38;5075217;28;20266;-73
2022/06/09 09:00:50;;;;;;;15.32;10.82;;;;;;;26.29;nan;94299.22;5076150;28;20254;-74
2022/06/09 09:03:27;;;;;;;11.85;10.05;;;;;;;25.85;nan;94285.75;5077997;28;20202;-74
2022/06/09 09:06:00;;;;;;;10.70;9.68;;;;;;;25.55;nan;94287.16;5079212;28;20294;-71
2022/06/09 09:08:27;;;;;;;10.70;9.63;;;;;;;25.81;nan;94286.25;5078737;28;20202;-73
2022/06/09 09:11:11;;;;;;;10.15;9.13;;;;;;;26.31;nan;94284.28;5078387;28;20205;-74
2022/06/09 09:13:44;;;;;;;8.43;7.28;;;;;;;26.39;nan;94276.47;5078737;28;20202;-72
2022/06/09 09:16:20;;;;;;;8.25;7.60;;;;;;;26.30;nan;94285.25;5076665;28;20225;-73
2022/06/09 09:18:54;;;;;;;9.02;8.10;;;;;;;25.92;nan;94283.31;5078180;28;20225;-73
2022/06/09 09:21:33;;;;;;;11.23;8.95;;;;;;;26.17;nan;94277.13;5078936;28;20233;-73
2022/06/09 09:24:10;;;;;;;18.02;10.13;;;;;;;26.48;nan;94258.22;5077783;28;20224;-73
2022/06/09 09:26:48;;;;;;;22.70;13.77;;;;;;;27.24;nan;94268.00;5078572;28;20237;-69
2022/06/09 09:29:22;;;;;;;11.32;9.07;;;;;;;27.35;nan;94262.41;5077774;28;20201;-72
2022/06/09 09:31:53;;;;;;;8.52;7.53;;;;;;;27.15;nan;94266.44;5078242;28;20748;-71
2022/06/09 09:34:29;;;;;;;12.68;9.55;;;;;;;27.17;nan;94254.84;5077485;28;20644;-72
2022/06/09 09:37:00;;;;;;;12.07;10.82;;;;;;;27.08;nan;94264.50;5078169;28;20611;-71
2022/06/09 09:39:40;;;;;;;9.40;8.18;;;;;;;26.91;nan;94255.09;5077839;28;20221;-69
2022/06/09 09:42:13;;;;;;;8.75;8.00;;;;;;;25.95;nan;94252.56;5078323;28;20315;-71
2022/06/09 09:44:40;;;;;;;8.05;7.25;;;;;;;25.83;nan;94245.25;5077782;28;20616;-75
2022/06/09 09:47:08;;;;;;;8.63;7.82;;;;;;;26.30;nan;94243.59;5078305;28;20595;-71
2022/06/09 09:49:44;;;;;;;7.28;6.55;;;;;;;26.71;nan;94240.88;5077584;28;20701;-73
2022/06/09 09:52:40;;;;;;;8.48;6.97;;;;;;;26.63;nan;94235.69;5077698;28;20204;-71
2022/06/09 09:55:29;;;;;;;7.43;6.70;;;;;;;26.58;nan;94240.56;5078104;28;20202;-75
2022/06/09 09:58:23;;;;;;;11.27;8.15;;;;;;;26.63;nan;94226.06;5077425;28;21131;-74
2022/06/09 10:00:53;;;;;;;15.98;7.82;;;;;;;26.39;nan;94224.34;5077726;28;20201;-72
2022/06/09 10:09:22;;;;;;;9.23;7.20;;;;;;;27.05;nan;94220.50;5077162;28;20915;-74
2022/06/09 10:11:58;;;;;;;11.40;8.95;;;;;;;27.48;nan;94210.44;5076926;28;20206;-73
2022/06/09 10:14:42;;;;;;;8.98;8.13;;;;;;;27.77;nan;94215.78;5077570;28;20220;-71
2022/06/09 10:17:23;;;;;;;19.05;10.75;;;;;;;28.01;nan;94208.72;5077615;28;20728;-71
2022/06/09 10:19:54;;;;;;;8.07;7.28;;;;;;;28.10;nan;94205.03;5076962;28;20259;-75
2022/06/09 10:22:26;;;;;;;8.75;8.00;;;;;;;28.40;nan;94201.47;5075559;28;20224;-73
2022/06/09 10:24:58;;;;;;;10.38;7.68;;;;;;;28.58;nan;94200.28;5074453;28;20642;-73
2022/06/09 10:27:32;;;;;;;8.45;6.35;;;;;;;28.75;nan;94180.78;5073648;28;20225;-70
2022/06/09 10:30:09;;;;;;;9.20;5.38;;;;;;;28.67;nan;94199.22;5074238;28;20197;-72
2022/06/09 10:32:42;;;;;;;7.80;6.03;;;;;;;28.27;nan;94197.84;5075296;28;21456;-73
2022/06/09 10:35:19;;;;;;;6.60;5.97;;;;;;;28.09;nan;94190.34;5077812;28;20206;-72
2022/06/09 10:37:54;;;;;;;7.90;6.28;;;;;;;27.95;nan;94180.72;5076127;28;20240;-72
2022/06/09 10:40:29;;;;;;;6.57;6.13;;;;;;;27.77;nan;94187.06;5076518;28;20225;-72
2022/06/09 10:43:03;;;;;;;6.38;5.78;;;;;;;27.07;nan;94192.47;5077076;28;20197;-71
2022/06/09 10:45:39;;;;;;;8.35;7.07;;;;;;;26.72;nan;94185.16;5077256;28;20202;-75
2022/06/09 10:57:03;;;;;;;8.27;6.65;;;;;;;26.42;nan;94179.75;5076716;28;20237;-71
2022/06/09 10:59:37;;;;;;;6.47;5.88;;;;;;;26.30;nan;94175.84;5076233;28;20201;-71
2022/06/09 11:02:11;;;;;;;7.10;6.50;;;;;;;26.36;nan;94177.81;5076991;28;20704;-75
2022/06/09 11:04:38;;;;;;;6.22;5.72;;;;;;;26.43;nan;94176.16;5076687;28;20201;-71
2022/06/09 11:07:29;;;;;;;6.70;5.55;;;;;;;26.49;nan;94168.63;5076744;28;20198;-74
2022/06/09 11:10:12;;;;;;;24.00;17.25;;;;;;;26.56;nan;94178.19;5076453;28;20202;-73
2022/06/09 11:12:49;;;;;;;7.38;6.68;;;;;;;27.15;nan;94165.53;5076702;28;20704;-67
2022/06/09 11:15:27;;;;;;;8.20;7.45;;;;;;;27.43;nan;94160.59;5076418;28;20278;-69
2022/06/09 11:18:09;;;;;;;13.43;6.85;;;;;;;27.00;nan;94160.22;5075650;28;20327;-69
2022/06/09 11:20:49;;;;;;;7.72;7.00;;;;;;;26.95;nan;94161.75;5076212;28;20228;-68
2022/06/09 11:23:25;;;;;;;8.85;5.93;;;;;;;27.15;nan;94162.09;5076369;28;20213;-67
2022/06/09 11:26:00;;;;;;;14.10;11.00;;;;;;;27.32;nan;94150.56;5076259;28;20225;-66
2022/06/09 11:28:39;;;;;;;9.65;8.48;;;;;;;27.00;nan;94157.63;5075807;28;20197;-66
2022/06/09 11:31:32;;;;;;;5.85;5.35;;;;;;;26.49;nan;94158.19;5076346;28;20202;-66
2022/06/09 11:34:16;;;;;;;6.53;4.93;;;;;;;26.20;nan;94146.59;5076131;28;20233;-70
2022/06/09 11:36:50;;;;;;;6.38;5.60;;;;;;;25.64;nan;94147.53;5076164;28;20642;-69
2022/06/09 11:39:32;;;;;;;6.88;5.25;;;;;;;25.76;nan;94136.59;5075217;28;21051;-68
2022/06/09 11:42:09;;;;;;;5.28;4.95;;;;;;;26.02;nan;94138.16;5076359;28;20201;-66
2022/06/09 11:44:39;;;;;;;6.72;5.28;;;;;;;26.23;nan;94138.41;5075708;28;20204;-67
2022/06/09 11:47:11;;;;;;;8.40;5.13;;;;;;;26.37;nan;94119.50;5075667;28;20349;-66
2022/06/09 11:49:42;;;;;;;5.47;5.05;;;;;;;26.70;nan;94112.34;5075464;28;20292;-66
2022/06/09 11:52:12;;;;;;;9.73;4.47;;;;;;;27.31;nan;94113.22;5075672;28;20669;-69
2022/06/09 11:54:43;;;;;;;5.88;5.47;;;;;;;27.72;nan;94113.69;5075774;28;20205;-66
2022/06/09 11:57:26;;;;;;;9.18;5.93;;;;;;;28.06;nan;94115.78;5075627;28;21791;-67
2022/06/09 11:59:57;;;;;;;5.10;4.63;;;;;;;27.73;nan;94102.25;5075757;28;20209;-68
2022/06/09 12:02:56;;;;;;;5.45;4.93;;;;;;;27.42;nan;94109.38;5075205;28;20917;-67
2022/06/09 12:05:28;;;;;;;7.75;5.45;;;;;;;27.21;nan;94114.47;5076092;28;20673;-68
2022/06/09 12:08:13;;;;;;;4.90;4.50;;;;;;;26.90;nan;94106.66;5073974;28;20866;-67
2022/06/09 12:11:09;;;;;;;8.82;4.80;;;;;;;26.68;nan;94114.31;5074936;28;20205;-70
2022/06/09 12:13:48;;;;;;;5.25;4.85;;;;;;;26.49;nan;94104.28;5028650;28;20209;-71
2022/06/09 12:16:28;;;;;;;4.55;4.05;;;;;;;26.33;nan;94100.00;5075771;28;20240;-68